»·PEaware :: N1JG KSEE-KSAN

N1JG :: KSEE-KSAN

FLIGHT INFORMATION

Flight Status: Arrived
Operator: Privately registered:
United States
More flights under this callsign
Pilot: Josh G. (4619)
Aircraft: SOCATA TBM-900
(TBM9)
More flights by this aircraft type
Origin: KSEE Gillespie
United States
Destination: KSAN San Diego Intl-Lindbergh
United States
More flights between these airports :: More routes between these airports
Route: +MZB
File this flight plan on PilotEdge
Remarks:
Altitude:
(Current/Filed)
6,000ft
Speed:
(Current/Filed)
0kts
Departed: 22-Feb-18 08:44 PM
Arrived: 22-Feb-18 09:07 PM
Distance/Time
Traveled:
12nm/0:23
Distance/Time
To Go:
Arrived

Flight Plot

Page will automatically refresh every two minutes.


Map Options




Map Legend


Flown Route
Filed Route
Departure Airport
Arrival Airport
Navaid (VOR, NDB)
Fix

Horizontal Profiles

Position Reports

Time Latitude Longitude Heading Altitude Ground
Speed
22-Feb-18 20:38 32.824773 -116.973319 89 371ft 0kts
22-Feb-18 20:39 32.824773 -116.973319 89 371ft 0kts
22-Feb-18 20:40 32.824773 -116.973319 89 371ft 0kts
22-Feb-18 20:41 32.824773 -116.973319 89 371ft 0kts
22-Feb-18 20:42 32.824773 -116.973319 89 371ft 0kts
22-Feb-18 20:43 32.824773 -116.973319 89 371ft 0kts
22-Feb-18 20:44 32.824773 -116.973319 89 371ft 0kts
22-Feb-18 20:45 32.824773 -116.973319 89 371ft 0kts
22-Feb-18 20:46 32.824773 -116.973319 89 371ft 0kts
22-Feb-18 20:47 32.824776 -116.973236 84 371ft 5kts
22-Feb-18 20:48 32.821460 -116.972912 179 372ft 17kts
22-Feb-18 20:49 32.818883 -116.972901 180 373ft 12kts
22-Feb-18 20:50 32.818414 -116.972393 358 373ft 3kts
22-Feb-18 20:51 32.844230 -116.974950 348 1118ft 161kts
22-Feb-18 20:52 32.890368 -116.988437 351 2896ft 179kts
22-Feb-18 20:53 32.938558 -116.996363 351 3942ft 163kts
22-Feb-18 20:54 32.984354 -117.001882 345 3954ft 170kts
22-Feb-18 20:55 32.987279 -117.048520 251 3960ft 169kts
22-Feb-18 20:56 32.970783 -117.099055 252 3960ft 164kts
22-Feb-18 20:57 32.948475 -117.143864 209 3967ft 176kts
22-Feb-18 20:58 32.904212 -117.165541 209 3961ft 176kts
22-Feb-18 20:59 32.863514 -117.185580 209 3961ft 176kts
22-Feb-18 21:00 32.820187 -117.207006 209 3961ft 176kts
22-Feb-18 21:01 32.776129 -117.211053 128 3988ft 200kts
22-Feb-18 21:02 32.763365 -117.148938 101 3989ft 204kts
22-Feb-18 21:03 32.760044 -117.084239 91 3989ft 204kts
22-Feb-18 21:04 32.757446 -117.018967 91 3989ft 204kts
22-Feb-18 21:05 32.754797 -116.952833 91 3964ft 205kts
22-Feb-18 21:06 32.727195 -116.912228 209 3965ft 175kts
22-Feb-18 21:07 32.692233 -116.946745 260 3968ft 175kts
22-Feb-18 21:08 32.688043 -117.002434 282 3901ft 168kts
22-Feb-18 21:09 32.699436 -117.050321 285 2886ft 147kts
22-Feb-18 21:10 32.709986 -117.093348 286 1778ft 119kts
22-Feb-18 21:11 32.717841 -117.125204 286 1095ft 91kts
22-Feb-18 21:12 32.724111 -117.151196 288 730ft 80kts
22-Feb-18 21:13 32.730222 -117.175930 286 107ft 78kts
22-Feb-18 21:14 32.734373 -117.190891 3 16ft 17kts
22-Feb-18 21:15 32.734007 -117.186727 106 17ft 14kts
22-Feb-18 21:16 32.732987 -117.182537 106 17ft 12kts
22-Feb-18 21:17 32.732102 -117.178898 101 18ft 9kts
22-Feb-18 21:18 32.732371 -117.177381 131 21ft 6kts
22-Feb-18 21:19 32.732180 -117.177325 198 21ft 0kts
22-Feb-18 21:20 32.732180 -117.177325 198 21ft 0kts
22-Feb-18 21:21 32.732180 -117.177325 198 21ft 0kts
22-Feb-18 21:22 32.732180 -117.177325 198 21ft 0kts
22-Feb-18 21:23 32.732180 -117.177325 198 21ft 0kts
22-Feb-18 21:24 32.732180 -117.177325 198 21ft 0kts
22-Feb-18 21:25 32.732180 -117.177325 198 21ft 0kts
22-Feb-18 21:26 32.732180 -117.177325 198 21ft 0kts
22-Feb-18 21:27 32.732180 -117.177325 198 21ft 0kts
22-Feb-18 21:28 32.732180 -117.177325 198 21ft 0kts

Navigation Log

Ident Type
Flight plan parsing failed, navigation log unavailable